Time;durP1;ratioP1;P1;durP2;ratioP2;P2;SDS_P1;SDS_P2;PMS_P1;PMS_P2;Temp;Humidity;BMP_temperature;BMP_pressure;BME280_temperature;BME280_humidity;BME280_pressure;Samples;Min_cycle;Max_cycle;Signal;HPM_P1;HPM_P2
2022/10/18 00:01:07;;;;;;;37.67;27.27;;;13.20;99.90;;;;;;5033343;28;20049;-31
2022/10/18 00:03:33;;;;;;;44.97;27.67;;;13.20;99.90;;;;;;5035837;28;20509;-31
2022/10/18 00:06:00;;;;;;;38.53;25.90;;;13.20;99.90;;;;;;5016908;28;20064;-31
2022/10/18 00:08:27;;;;;;;420.48;61.60;;;13.20;99.90;;;;;;5034875;28;20120;-32
2022/10/18 00:10:53;;;;;;;136.90;35.28;;;13.20;99.90;;;;;;5021091;28;20038;-34
2022/10/18 00:13:19;;;;;;;98.43;31.05;;;13.20;99.90;;;;;;5022512;28;20564;-31
2022/10/18 00:15:54;;;;;;;348.30;53.10;;;13.20;99.90;;;;;;5020098;28;20135;-36
2022/10/18 00:18:21;;;;;;;538.63;68.65;;;13.20;99.90;;;;;;5025944;28;20038;-33
2022/10/18 00:20:56;;;;;;;266.92;43.83;;;13.20;99.90;;;;;;5017466;28;20124;-36
2022/10/18 00:23:22;;;;;;;42.30;25.65;;;13.20;99.90;;;;;;5015743;28;20026;-33
2022/10/18 00:25:49;;;;;;;73.35;30.17;;;13.20;99.90;;;;;;5033827;28;20392;-31
2022/10/18 00:28:14;;;;;;;321.38;50.33;;;13.30;99.90;;;;;;5029481;28;20034;-34
2022/10/18 00:30:40;;;;;;;107.43;33.65;;;13.30;99.90;;;;;;5030261;28;20094;-31
2022/10/18 00:33:06;;;;;;;133.32;31.30;;;13.30;99.90;;;;;;5009458;28;20048;-31
2022/10/18 00:35:34;;;;;;;79.70;27.98;;;13.30;99.90;;;;;;5034702;28;20092;-37
2022/10/18 00:38:00;;;;;;;252.85;41.72;;;13.40;99.90;;;;;;5045383;28;20045;-31
2022/10/18 00:40:25;;;;;;;105.18;30.15;;;13.40;99.90;;;;;;5017849;28;20052;-31
2022/10/18 00:42:51;;;;;;;88.85;29.38;;;13.40;99.90;;;;;;5010044;28;20060;-30
2022/10/18 00:45:22;;;;;;;60.40;28.15;;;13.30;99.90;;;;;;5005727;28;20034;-31
2022/10/18 00:47:59;;;;;;;37.78;24.80;;;13.40;99.90;;;;;;5018934;28;20040;-36
2022/10/18 00:50:27;;;;;;;36.13;24.83;;;13.40;99.90;;;;;;5033545;28;20037;-32
2022/10/18 00:52:57;;;;;;;41.30;24.42;;;13.40;99.90;;;;;;5006804;28;20057;-33
2022/10/18 00:55:27;;;;;;;69.07;27.58;;;13.40;99.90;;;;;;5013753;28;20037;-32
2022/10/18 00:57:53;;;;;;;47.85;25.42;;;13.40;99.90;;;;;;5015080;28;20422;-32
2022/10/18 01:00:19;;;;;;;36.95;25.50;;;13.40;99.90;;;;;;5025984;28;20069;-32
2022/10/18 01:02:46;;;;;;;30.50;23.27;;;13.40;99.90;;;;;;5017938;28;20076;-31
2022/10/18 01:05:14;;;;;;;36.13;26.40;;;13.40;99.90;;;;;;5027279;28;20037;-33
2022/10/18 01:08:01;;;;;;;42.83;23.48;;;13.30;99.90;;;;;;5040234;28;20061;-31
2022/10/18 01:10:48;;;;;;;57.95;27.92;;;13.30;99.90;;;;;;5016969;28;20033;-31
2022/10/18 01:13:33;;;;;;;305.05;53.85;;;13.40;99.90;;;;;;5004893;28;20044;-30
2022/10/18 01:16:26;;;;;;;30.90;24.42;;;13.30;99.90;;;;;;5010553;28;20041;-32
2022/10/18 01:19:22;;;;;;;171.88;43.63;;;13.30;99.90;;;;;;5004247;28;20377;-34
2022/10/18 01:22:10;;;;;;;58.78;27.20;;;13.40;99.90;;;;;;5010231;28;20111;-34
2022/10/18 01:24:44;;;;;;;87.40;30.42;;;13.30;99.90;;;;;;4997261;28;20064;-33
2022/10/18 01:27:19;;;;;;;46.00;27.35;;;13.30;99.90;;;;;;4999509;28;20125;-31
2022/10/18 01:30:01;;;;;;;30.45;23.98;;;13.30;99.90;;;;;;5015161;28;20046;-33
2022/10/18 01:32:41;;;;;;;247.40;45.05;;;13.30;99.90;;;;;;5011628;28;20038;-31
2022/10/18 01:35:14;;;;;;;39.85;26.65;;;13.30;99.90;;;;;;5014858;28;20041;-34
2022/10/18 01:37:44;;;;;;;43.63;28.65;;;13.30;99.90;;;;;;5021200;28;20044;-33
2022/10/18 01:40:12;;;;;;;36.25;26.55;;;13.30;99.90;;;;;;5030785;28;20241;-30
2022/10/18 01:42:38;;;;;;;41.45;25.77;;;13.30;99.90;;;;;;5006455;28;20091;-30
2022/10/18 01:45:07;;;;;;;38.17;26.13;;;13.30;99.90;;;;;;4998457;28;20038;-31
2022/10/18 01:47:34;;;;;;;38.13;26.83;;;13.30;99.90;;;;;;5007324;28;20117;-30
2022/10/18 01:50:03;;;;;;;43.95;27.00;;;13.30;99.90;;;;;;4999968;28;20045;-31
2022/10/18 01:52:29;;;;;;;110.05;33.15;;;13.20;99.90;;;;;;5011609;28;20095;-33
2022/10/18 01:54:57;;;;;;;34.90;23.85;;;13.20;99.90;;;;;;5001512;28;20113;-32
2022/10/18 01:57:36;;;;;;;35.53;25.05;;;13.20;99.90;;;;;;5000512;28;20038;-29
2022/10/18 02:00:11;;;;;;;32.60;24.27;;;13.20;99.90;;;;;;4998994;28;20038;-33
2022/10/18 02:03:00;;;;;;;30.45;23.15;;;13.20;99.90;;;;;;4996893;28;20431;-32
2022/10/18 02:05:35;;;;;;;74.80;27.27;;;13.20;99.90;;;;;;5021784;28;20043;-33
2022/10/18 02:08:19;;;;;;;38.05;23.65;;;13.10;99.90;;;;;;5008158;28;20040;-31
2022/10/18 02:11:08;;;;;;;53.20;25.40;;;13.10;99.90;;;;;;5022205;28;20037;-32
2022/10/18 02:13:56;;;;;;;31.08;22.95;;;13.10;99.90;;;;;;5032500;28;20044;-29
2022/10/18 02:16:24;;;;;;;130.60;29.20;;;13.10;99.90;;;;;;5004853;28;20042;-28
2022/10/18 02:19:25;;;;;;;207.13;37.42;;;13.10;99.90;;;;;;5002812;28;20041;-27
2022/10/18 02:21:53;;;;;;;61.22;25.48;;;13.10;99.90;;;;;;4990921;28;20045;-27
2022/10/18 02:24:22;;;;;;;38.25;24.10;;;13.10;99.90;;;;;;5022202;28;20037;-28
2022/10/18 02:26:48;;;;;;;97.40;29.02;;;13.10;99.90;;;;;;5022334;28;20451;-27
2022/10/18 02:29:14;;;;;;;76.32;26.88;;;13.00;99.90;;;;;;5010413;28;20060;-27
2022/10/18 02:31:50;;;;;;;59.22;26.10;;;13.00;99.90;;;;;;5009630;28;20482;-27
2022/10/18 02:34:29;;;;;;;145.73;29.05;;;13.00;99.90;;;;;;5007312;28;20572;-28
2022/10/18 02:37:00;;;;;;;41.10;23.30;;;13.00;99.90;;;;;;5010373;28;20037;-26
2022/10/18 02:39:43;;;;;;;29.75;22.83;;;13.00;99.90;;;;;;5030194;28;20472;-28
2022/10/18 02:42:10;;;;;;;66.75;25.88;;;13.00;99.90;;;;;;5004701;28;20577;-28
2022/10/18 02:44:37;;;;;;;147.93;31.30;;;13.00;99.90;;;;;;5023629;28;20029;-26
2022/10/18 02:47:04;;;;;;;84.45;24.88;;;13.00;99.90;;;;;;5017690;28;20250;-27
2022/10/18 02:49:30;;;;;;;82.63;26.35;;;12.90;99.90;;;;;;5012878;28;20045;-27
2022/10/18 02:51:55;;;;;;;100.10;27.00;;;12.90;99.90;;;;;;5014068;28;20045;-27
2022/10/18 02:54:22;;;;;;;64.18;25.42;;;12.90;99.90;;;;;;5003346;28;20061;-27
2022/10/18 02:56:48;;;;;;;111.15;25.75;;;12.90;99.90;;;;;;5014972;28;20037;-28
2022/10/18 02:59:14;;;;;;;191.40;38.03;;;12.90;99.90;;;;;;5013828;28;20050;-29
2022/10/18 03:01:39;;;;;;;122.07;32.50;;;12.90;99.90;;;;;;5008753;28;20096;-27
2022/10/18 03:04:05;;;;;;;157.95;43.70;;;12.90;99.90;;;;;;5013675;28;20045;-27
2022/10/18 03:06:32;;;;;;;147.60;45.75;;;12.90;99.90;;;;;;4994635;28;20473;-27
2022/10/18 03:08:58;;;;;;;93.00;36.58;;;12.90;99.90;;;;;;5022442;28;20073;-28
2022/10/18 03:11:24;;;;;;;176.52;54.80;;;12.90;99.90;;;;;;5011969;28;20042;-27
2022/10/18 03:13:49;;;;;;;132.85;47.45;;;12.90;99.90;;;;;;5018288;28;20461;-28
2022/10/18 03:16:16;;;;;;;83.65;32.05;;;12.80;99.90;;;;;;5018471;28;20368;-29
2022/10/18 03:18:42;;;;;;;62.28;25.60;;;12.80;99.90;;;;;;5017895;28;20460;-28
2022/10/18 03:21:08;;;;;;;44.83;25.95;;;12.80;99.90;;;;;;5014547;28;20479;-28
2022/10/18 03:23:34;;;;;;;35.78;22.77;;;12.80;99.90;;;;;;5015628;28;20064;-27
2022/10/18 03:26:00;;;;;;;150.98;40.00;;;12.70;99.90;;;;;;5018036;28;20068;-26
2022/10/18 03:28:26;;;;;;;44.17;25.25;;;12.80;99.90;;;;;;5026751;28;20036;-29
2022/10/18 03:30:52;;;;;;;29.35;24.00;;;12.70;99.90;;;;;;4999207;28;20048;-34
2022/10/18 03:33:18;;;;;;;37.08;23.45;;;12.70;99.90;;;;;;5012104;28;20046;-29
2022/10/18 03:35:44;;;;;;;42.58;24.38;;;12.70;99.90;;;;;;5017569;28;20052;-27
2022/10/18 03:38:09;;;;;;;51.30;24.05;;;12.70;99.90;;;;;;5017598;28;20124;-27
2022/10/18 03:40:35;;;;;;;45.45;23.38;;;12.70;99.90;;;;;;5004420;28;20487;-28
2022/10/18 03:43:01;;;;;;;74.80;25.33;;;12.70;99.90;;;;;;4999419;28;20061;-27
2022/10/18 03:45:27;;;;;;;51.80;22.27;;;12.60;99.90;;;;;;5016127;28;20029;-29
2022/10/18 03:47:52;;;;;;;32.85;23.38;;;12.60;99.90;;;;;;5020871;28;20037;-27
2022/10/18 03:50:18;;;;;;;157.32;35.80;;;12.60;99.90;;;;;;4994680;28;20038;-28
2022/10/18 03:52:44;;;;;;;188.50;34.47;;;12.60;99.90;;;;;;5003056;28;20038;-29
2022/10/18 03:55:10;;;;;;;188.45;32.92;;;12.60;99.90;;;;;;5016471;28;20491;-28
2022/10/18 03:57:35;;;;;;;119.25;29.48;;;12.60;99.90;;;;;;4993931;28;20041;-27
2022/10/18 04:00:01;;;;;;;131.98;28.90;;;12.60;99.90;;;;;;5034904;28;20501;-27
2022/10/18 04:02:27;;;;;;;108.15;27.98;;;12.60;99.90;;;;;;5016965;28;20041;-27
2022/10/18 04:04:53;;;;;;;87.57;25.52;;;12.60;99.90;;;;;;5016359;28;20673;-28
2022/10/18 04:07:18;;;;;;;69.45;22.55;;;12.60;99.90;;;;;;5015635;28;20053;-28
2022/10/18 04:09:44;;;;;;;82.70;23.70;;;12.50;99.90;;;;;;5008716;28;20455;-27
2022/10/18 04:12:10;;;;;;;66.85;24.52;;;12.50;99.90;;;;;;5026719;28;20143;-27
2022/10/18 04:14:36;;;;;;;108.57;29.85;;;12.50;99.90;;;;;;5005945;28;20030;-27
2022/10/18 04:17:03;;;;;;;79.90;25.05;;;12.50;99.90;;;;;;5013532;28;20037;-26
2022/10/18 04:19:29;;;;;;;61.13;22.85;;;12.50;99.90;;;;;;5017040;28;20052;-27
2022/10/18 04:21:55;;;;;;;99.72;26.55;;;12.50;99.90;;;;;;5021083;28;20029;-29
2022/10/18 04:24:21;;;;;;;135.43;33.92;;;12.50;99.90;;;;;;5022439;28;20067;-27
2022/10/18 04:26:47;;;;;;;47.28;23.02;;;12.40;99.90;;;;;;5022263;28;20041;-26
2022/10/18 04:29:12;;;;;;;75.28;23.58;;;12.40;99.90;;;;;;5023258;28;20067;-30
2022/10/18 04:31:38;;;;;;;108.03;32.05;;;12.40;99.90;;;;;;5010351;28;20037;-27
2022/10/18 04:34:04;;;;;;;34.90;22.42;;;12.40;99.90;;;;;;5015296;28;20442;-27
2022/10/18 04:36:30;;;;;;;38.83;21.63;;;12.40;99.90;;;;;;5005368;28;20076;-27
2022/10/18 04:38:56;;;;;;;42.95;20.50;;;12.40;99.90;;;;;;5016456;28;20048;-28
2022/10/18 04:41:22;;;;;;;59.80;22.13;;;12.40;99.90;;;;;;5016435;28;20387;-28
2022/10/18 04:43:48;;;;;;;76.50;25.48;;;12.40;99.90;;;;;;5015790;28;20033;-27
2022/10/18 04:46:13;;;;;;;39.13;20.05;;;12.40;99.90;;;;;;5016433;28;20045;-27
2022/10/18 04:48:39;;;;;;;98.15;30.05;;;12.40;99.90;;;;;;5026573;28;20071;-27
2022/10/18 04:51:05;;;;;;;72.50;22.38;;;12.40;99.90;;;;;;5020248;28;20135;-27
2022/10/18 04:53:31;;;;;;;51.35;20.25;;;12.30;99.90;;;;;;5016000;28;20048;-27
2022/10/18 04:55:57;;;;;;;113.40;27.85;;;12.30;99.90;;;;;;5009985;28;20084;-27
2022/10/18 04:58:23;;;;;;;148.43;33.60;;;12.30;99.90;;;;;;5026051;28;20183;-27
2022/10/18 05:00:49;;;;;;;79.28;25.55;;;12.40;99.90;;;;;;5009692;28;20404;-27
2022/10/18 05:03:15;;;;;;;54.92;22.40;;;12.40;99.90;;;;;;5017585;28;20120;-28
2022/10/18 05:05:41;;;;;;;82.55;24.10;;;12.40;99.90;;;;;;5017521;28;20128;-27
2022/10/18 05:08:07;;;;;;;57.45;22.80;;;12.40;99.90;;;;;;5020599;28;20541;-28
2022/10/18 05:10:33;;;;;;;71.65;25.15;;;12.40;99.90;;;;;;5003427;28;20451;-28
2022/10/18 05:12:59;;;;;;;43.63;21.90;;;12.40;99.90;;;;;;5019611;28;20427;-29
2022/10/18 05:15:25;;;;;;;58.15;22.25;;;12.40;99.90;;;;;;5016052;28;20042;-29
2022/10/18 05:17:50;;;;;;;97.13;23.63;;;12.40;99.90;;;;;;5010793;28;20529;-27
2022/10/18 05:20:16;;;;;;;43.55;23.23;;;12.40;99.90;;;;;;5028475;28;20042;-29
2022/10/18 05:22:42;;;;;;;64.35;24.95;;;12.40;99.90;;;;;;5011183;28;20073;-28
2022/10/18 05:25:08;;;;;;;53.65;21.52;;;12.40;99.90;;;;;;5010104;28;20116;-27
2022/10/18 05:27:34;;;;;;;135.88;28.10;;;12.40;99.90;;;;;;5009557;28;20518;-29
2022/10/18 05:30:00;;;;;;;42.95;20.90;;;12.40;99.90;;;;;;5004412;28;20042;-27
2022/10/18 05:32:25;;;;;;;69.60;21.80;;;12.40;99.90;;;;;;5033258;28;20497;-28
2022/10/18 05:34:51;;;;;;;109.95;24.98;;;12.40;99.90;;;;;;5019589;28;20041;-28
2022/10/18 05:37:17;;;;;;;72.82;22.80;;;12.40;99.90;;;;;;5014130;28;20483;-28
2022/10/18 05:39:43;;;;;;;35.88;19.38;;;12.40;99.90;;;;;;5019618;28;20044;-29
2022/10/18 05:42:09;;;;;;;62.38;22.00;;;12.40;99.90;;;;;;5014703;28;20042;-26
2022/10/18 05:44:35;;;;;;;37.70;18.67;;;12.30;99.90;;;;;;5014805;28;20045;-30
2022/10/18 05:47:01;;;;;;;129.32;29.50;;;12.30;99.90;;;;;;5011945;28;20046;-27
2022/10/18 05:49:26;;;;;;;51.60;21.05;;;12.30;99.90;;;;;;5005400;28;20042;-27
2022/10/18 05:51:52;;;;;;;47.38;19.45;;;12.30;99.90;;;;;;5001933;28;20046;-28
2022/10/18 05:54:18;;;;;;;29.88;18.77;;;12.30;99.90;;;;;;5003656;28;20060;-27
2022/10/18 05:56:43;;;;;;;31.05;18.38;;;12.30;99.90;;;;;;5006811;28;20488;-29
2022/10/18 05:59:10;;;;;;;89.85;21.52;;;12.30;99.90;;;;;;5021574;28;20037;-27
2022/10/18 06:01:41;;;;;;;153.45;31.58;;;12.30;99.90;;;;;;5009957;28;20069;-26
2022/10/18 06:04:09;;;;;;;49.40;19.95;;;12.30;99.90;;;;;;4991042;28;20030;-26
2022/10/18 06:06:36;;;;;;;115.82;24.92;;;12.30;99.90;;;;;;4984911;28;20038;-28
2022/10/18 06:09:03;;;;;;;69.88;20.50;;;12.20;99.90;;;;;;5010065;28;20044;-26
2022/10/18 06:11:30;;;;;;;45.47;18.17;;;12.20;99.90;;;;;;5012824;28;20038;-28
2022/10/18 06:13:59;;;;;;;35.80;17.30;;;12.20;99.90;;;;;;5016463;28;20129;-26
2022/10/18 06:16:26;;;;;;;99.13;24.15;;;12.10;99.90;;;;;;5003912;28;20033;-28
2022/10/18 06:18:54;;;;;;;96.40;21.15;;;12.10;99.90;;;;;;5010477;28;20076;-27
2022/10/18 06:21:21;;;;;;;153.52;23.73;;;12.10;99.90;;;;;;5031642;28;20037;-27
2022/10/18 06:23:51;;;;;;;106.82;21.05;;;12.00;99.90;;;;;;5009295;28;20036;-28
2022/10/18 06:26:17;;;;;;;82.93;20.20;;;12.00;99.90;;;;;;5010016;28;20128;-29
2022/10/18 06:28:43;;;;;;;35.58;17.38;;;12.00;99.90;;;;;;5023598;28;20121;-27
2022/10/18 06:31:10;;;;;;;38.35;16.58;;;12.00;99.90;;;;;;5014252;28;20470;-26
2022/10/18 06:33:36;;;;;;;81.53;18.63;;;11.90;99.90;;;;;;5002829;28;20391;-28
2022/10/18 06:36:09;;;;;;;139.35;24.02;;;11.90;99.90;;;;;;5013936;28;20045;-27
2022/10/18 06:38:35;;;;;;;102.95;21.17;;;11.90;99.90;;;;;;5008549;28;20408;-28
2022/10/18 06:41:02;;;;;;;50.03;18.38;;;11.90;99.90;;;;;;5018589;28;20100;-28
2022/10/18 06:43:28;;;;;;;51.70;18.77;;;11.90;99.90;;;;;;5011033;28;20056;-26
2022/10/18 06:45:54;;;;;;;33.80;17.35;;;11.80;99.90;;;;;;5011001;28;20537;-28
2022/10/18 06:48:20;;;;;;;54.05;16.40;;;11.80;99.90;;;;;;4997835;28;20041;-27
2022/10/18 06:50:58;;;;;;;28.52;16.08;;;11.80;99.90;;;;;;5013678;28;20053;-27
2022/10/18 06:53:25;;;;;;;34.58;16.27;;;11.90;99.90;;;;;;5013668;28;20063;-26
2022/10/18 06:55:51;;;;;;;85.25;20.10;;;11.80;99.90;;;;;;5031474;28;20499;-29
2022/10/18 06:58:17;;;;;;;23.80;16.08;;;11.90;99.90;;;;;;5014132;28;20045;-28
2022/10/18 07:00:44;;;;;;;62.92;16.90;;;11.90;99.90;;;;;;5027642;28;20441;-27
2022/10/18 07:03:11;;;;;;;96.30;20.35;;;11.90;99.90;;;;;;5012078;28;20086;-29
2022/10/18 07:05:36;;;;;;;99.90;20.48;;;11.90;99.90;;;;;;5008811;28;20061;-27
2022/10/18 07:08:03;;;;;;;42.95;15.10;;;11.90;99.90;;;;;;5025402;28;20036;-28
2022/10/18 07:10:28;;;;;;;60.88;17.90;;;11.90;99.90;;;;;;5001810;28;20084;-28
2022/10/18 07:12:55;;;;;;;132.00;19.08;;;12.00;99.90;;;;;;5004335;28;20061;-27
2022/10/18 07:15:22;;;;;;;99.60;17.50;;;12.00;99.90;;;;;;5040697;28;20421;-27
2022/10/18 07:17:49;;;;;;;127.78;18.58;;;12.00;99.90;;;;;;5009311;28;20398;-28
2022/10/18 07:20:15;;;;;;;123.85;18.50;;;12.00;99.90;;;;;;5020448;28;20029;-27
2022/10/18 07:22:41;;;;;;;178.57;25.00;;;12.00;99.90;;;;;;5005091;28;20029;-27
2022/10/18 07:25:07;;;;;;;96.13;17.08;;;12.00;99.90;;;;;;4994642;28;20053;-27
2022/10/18 07:27:41;;;;;;;56.78;14.95;;;12.00;99.90;;;;;;5010825;28;20084;-27
2022/10/18 07:30:09;;;;;;;159.52;24.83;;;12.10;99.90;;;;;;5010715;28;20048;-27
2022/10/18 07:32:35;;;;;;;33.45;13.02;;;12.20;99.90;;;;;;5006451;28;20040;-29
2022/10/18 07:35:03;;;;;;;81.43;15.02;;;12.20;99.90;;;;;;5004121;28;20037;-27
2022/10/18 07:37:29;;;;;;;101.85;16.67;;;12.30;99.90;;;;;;5015999;28;20037;-28
2022/10/18 07:39:55;;;;;;;90.40;16.65;;;12.30;99.90;;;;;;5009289;28;20084;-29
2022/10/18 07:42:20;;;;;;;57.85;14.43;;;12.40;99.90;;;;;;5012402;28;20065;-28
2022/10/18 07:47:14;;;;;;;31.88;12.80;;;12.40;99.90;;;;;;5062567;28;20063;-30
2022/10/18 07:49:40;;;;;;;60.30;13.73;;;12.50;99.90;;;;;;5069350;28;20037;-32
2022/10/18 08:25:17;;;;;;;27.80;10.90;;;13.40;99.90;;;;;;5061623;28;20053;-30
2022/10/18 08:32:03;;;;;;;18.80;9.65;;;13.40;99.90;;;;;;4988419;28;20105;-30
2022/10/18 08:34:38;;;;;;;26.25;11.38;;;13.50;99.90;;;;;;4985258;28;20034;-32
2022/10/18 08:37:04;;;;;;;20.88;10.23;;;13.50;99.90;;;;;;4981827;28;20031;-30
2022/10/18 08:39:31;;;;;;;36.60;10.90;;;13.60;99.90;;;;;;5041845;28;20052;-30
2022/10/18 08:42:03;;;;;;;23.77;10.93;;;13.70;99.90;;;;;;5066924;28;20471;-30
2022/10/18 08:44:32;;;;;;;18.08;10.10;;;13.70;99.90;;;;;;5060857;28;20072;-33
2022/10/18 08:55:07;;;;;;;31.52;10.35;;;13.80;99.90;;;;;;5064162;28;20582;-28
2022/10/18 09:16:20;;;;;;;16.60;11.35;;;14.20;99.90;;;;;;5077033;22;20423;-32
2022/10/18 09:18:56;;;;;;;15.65;11.40;;;14.30;99.90;;;;;;5055258;28;20504;-33
2022/10/18 09:22:16;;;;;;;13.82;10.00;;;14.50;99.90;;;;;;5053351;28;20040;-32
2022/10/18 09:24:53;;;;;;;14.77;11.18;;;14.70;99.90;;;;;;4973596;28;20133;-32
2022/10/18 09:27:28;;;;;;;14.98;11.23;;;14.90;99.90;;;;;;5034745;28;20059;-30
2022/10/18 09:29:54;;;;;;;12.15;10.35;;;15.10;99.90;;;;;;5048968;28;20044;-30
2022/10/18 09:32:52;;;;;;;15.57;9.98;;;15.10;99.90;;;;;;5038246;28;20049;-31
2022/10/18 09:35:41;;;;;;;14.82;10.07;;;15.00;99.90;;;;;;5012535;28;20128;-34
2022/10/18 09:38:11;;;;;;;13.48;11.13;;;15.50;99.90;;;;;;5037689;28;20041;-33
2022/10/18 09:40:59;;;;;;;12.23;10.15;;;16.20;99.90;;;;;;5030103;28;20060;-31
2022/10/18 09:43:45;;;;;;;12.77;9.70;;;17.20;99.90;;;;;;5027913;28;20041;-34
2022/10/18 09:46:12;;;;;;;8.70;7.90;;;18.00;99.90;;;;;;5026065;28;20036;-37
2022/10/18 09:48:45;;;;;;;9.90;8.15;;;18.70;99.90;;;;;;5035634;28;20501;-33
2022/10/18 09:51:16;;;;;;;;;;;19.40;99.90;;;;;;5038247;28;20068;-34
2022/10/18 09:53:54;;;;;;;8.90;6.70;;;19.50;99.90;;;;;;5032828;28;19924;-32
2022/10/18 09:56:35;;;;;;;8.98;7.40;;;19.90;99.90;;;;;;5036189;28;20041;-35
2022/10/18 09:59:01;;;;;;;9.25;7.25;;;20.20;99.90;;;;;;5053232;28;20041;-32
2022/10/18 10:01:32;;;;;;;10.45;7.18;;;20.50;99.90;;;;;;5033585;28;20056;-33
2022/10/18 10:04:01;;;;;;;8.57;7.32;;;20.90;99.90;;;;;;5045768;28;20042;-35
2022/10/18 10:06:31;;;;;;;11.75;7.80;;;21.20;99.90;;;;;;5021209;28;20048;-34
2022/10/18 10:09:06;;;;;;;14.43;9.05;;;21.60;99.90;;;;;;5034408;28;20087;-34
2022/10/18 10:11:39;;;;;;;8.32;6.22;;;21.70;99.90;;;;;;5024711;28;20039;-33
2022/10/18 10:14:15;;;;;;;6.35;4.53;;;22.10;99.90;;;;;;5044576;28;20517;-35
2022/10/18 10:16:53;;;;;;;7.20;4.40;;;22.40;99.90;;;;;;5037116;28;20066;-33
2022/10/18 10:19:31;;;;;;;8.18;5.03;;;22.50;99.90;;;;;;5025072;28;20091;-35
2022/10/18 10:22:12;;;;;;;8.35;4.60;;;22.50;99.90;;;;;;5055212;28;20091;-36
2022/10/18 10:24:46;;;;;;;8.70;4.38;;;22.80;99.90;;;;;;5046977;28;20056;-35
2022/10/18 10:27:42;;;;;;;6.97;4.18;;;22.90;99.90;;;;;;5039241;28;20086;-33
2022/10/18 10:30:26;;;;;;;6.38;3.60;;;23.10;99.90;;;;;;5030306;28;20096;-34
2022/10/18 10:32:53;;;;;;;;;;;22.60;99.90;;;;;;5020232;28;20064;-35
2022/10/18 10:35:33;;;;;;;8.70;3.40;;;22.80;99.90;;;;;;5046504;28;19971;-34
2022/10/18 10:38:00;;;;;;;9.13;3.60;;;23.00;99.90;;;;;;5033376;28;20045;-37
2022/10/18 10:40:27;;;;;;;9.27;3.10;;;22.80;99.90;;;;;;5032829;28;20037;-36
2022/10/18 10:42:53;;;;;;;6.10;3.40;;;22.90;99.90;;;;;;5027182;28;20387;-37
2022/10/18 10:45:20;;;;;;;8.30;3.50;;;22.90;99.90;;;;;;5045623;28;20066;-36
2022/10/18 10:47:47;;;;;;;7.38;3.25;;;22.90;99.90;;;;;;5032875;28;20084;-35
2022/10/18 10:50:23;;;;;;;7.93;2.78;;;22.40;99.90;;;;;;5036326;28;20041;-34
2022/10/18 10:52:49;;;;;;;8.65;2.63;;;22.10;99.90;;;;;;5041909;28;20072;-29
2022/10/18 10:55:31;;;;;;;7.93;2.80;;;21.90;99.90;;;;;;5059399;28;20098;-29
2022/10/18 10:57:57;;;;;;;7.28;2.55;;;22.10;99.90;;;;;;5032963;28;20048;-30
2022/10/18 11:01:15;;;;;;;5.50;2.53;;;22.20;99.90;;;;;;5026872;28;20397;-32
2022/10/18 11:03:49;;;;;;;5.00;2.33;;;21.70;99.90;;;;;;4989815;28;20449;-29
2022/10/18 11:06:41;;;;;;;8.65;2.55;;;21.60;99.90;;;;;;5025848;28;20045;-30
2022/10/18 11:09:35;;;;;;;8.60;2.55;;;21.80;99.90;;;;;;5027901;28;20052;-29
2022/10/18 11:12:07;;;;;;;6.85;2.53;;;22.10;99.90;;;;;;5042596;28;20053;-31
2022/10/18 11:14:41;;;;;;;7.05;2.45;;;22.20;99.90;;;;;;5033529;28;20041;-28
2022/10/18 11:17:13;;;;;;;6.35;1.90;;;22.10;99.90;;;;;;5045649;28;20042;-29
2022/10/18 11:20:14;;;;;;;5.43;1.83;;;21.70;99.90;;;;;;5020944;28;20567;-29
2022/10/18 11:23:05;;;;;;;5.70;2.05;;;21.30;99.90;;;;;;5043223;28;20052;-29
2022/10/18 11:26:01;;;;;;;9.35;2.22;;;21.30;99.90;;;;;;5042019;28;20414;-32
2022/10/18 11:29:02;;;;;;;6.63;1.85;;;21.10;99.90;;;;;;5046112;28;20083;-29
2022/10/18 11:31:44;;;;;;;5.80;1.70;;;20.80;99.90;;;;;;5043942;28;20086;-29
2022/10/18 11:34:37;;;;;;;9.23;2.50;;;20.30;99.90;;;;;;5034532;28;20390;-30
2022/10/18 11:37:31;;;;;;;7.97;1.77;;;20.10;99.90;;;;;;5031030;28;20037;-30
2022/10/18 11:40:28;;;;;;;9.63;2.13;;;19.70;99.90;;;;;;5036067;28;20546;-29
2022/10/18 11:43:19;;;;;;;4.85;1.98;;;19.20;99.90;;;;;;5042372;28;20527;-30
2022/10/18 11:46:10;;;;;;;9.60;1.80;;;19.00;99.90;;;;;;5056811;28;20037;-30
2022/10/18 11:48:42;;;;;;;6.05;2.20;;;19.10;99.90;;;;;;5037437;28;20033;-29
2022/10/18 11:51:34;;;;;;;8.52;1.90;;;19.30;99.90;;;;;;5036260;28;20389;-29
2022/10/18 11:54:10;;;;;;;8.98;2.00;;;19.60;99.90;;;;;;5046842;28;20452;-30
2022/10/18 11:56:48;;;;;;;9.15;2.40;;;20.30;99.90;;;;;;5037232;28;20033;-29
2022/10/18 11:59:33;;;;;;;6.85;1.90;;;20.80;99.90;;;;;;5037042;28;20477;-30
2022/10/18 12:02:40;;;;;;;4.50;1.52;;;21.40;99.90;;;;;;5034711;28;20025;-29
2022/10/18 12:05:08;;;;;;;7.60;1.80;;;21.80;99.90;;;;;;5025160;28;20412;-29
2022/10/18 12:07:40;;;;;;;7.15;1.90;;;21.80;99.90;;;;;;5022473;28;20041;-29
2022/10/18 12:10:08;;;;;;;6.60;1.90;;;22.20;99.90;;;;;;5036583;28;20049;-30
2022/10/18 12:12:57;;;;;;;8.48;2.33;;;22.80;99.90;;;;;;5054832;28;20098;-32
2022/10/18 12:15:28;;;;;;;5.30;2.08;;;23.70;99.90;;;;;;5051815;28;20043;-29
2022/10/18 12:18:31;;;;;;;7.07;1.80;;;24.20;94.20;;;;;;5053473;28;20512;-29
2022/10/18 12:20:58;;;;;;;9.50;1.95;;;24.10;89.40;;;;;;5046472;28;20502;-29
2022/10/18 12:23:36;;;;;;;7.05;1.70;;;24.40;90.10;;;;;;5017433;28;20044;-29
2022/10/18 12:26:05;;;;;;;7.05;1.73;;;24.70;86.90;;;;;;5058689;28;20056;-30
2022/10/18 12:28:43;;;;;;;6.22;1.80;;;25.30;89.80;;;;;;5051969;28;20487;-30
2022/10/18 12:31:15;;;;;;;7.97;1.58;;;25.80;76.40;;;;;;5031808;28;20041;-29
2022/10/18 12:33:45;;;;;;;8.27;2.25;;;26.50;66.00;;;;;;5034605;28;20517;-29
2022/10/18 12:36:17;;;;;;;6.88;1.83;;;26.60;60.60;;;;;;5034742;28;20045;-30
2022/10/18 12:38:47;;;;;;;6.95;1.80;;;26.70;62.20;;;;;;5036385;28;20078;-30
2022/10/18 12:41:37;;;;;;;6.35;1.80;;;26.90;63.00;;;;;;5040006;28;20234;-29
2022/10/18 12:44:27;;;;;;;5.60;1.58;;;26.80;57.60;;;;;;5034061;28;20413;-30
2022/10/18 12:46:55;;;;;;;5.93;1.50;;;26.50;58.80;;;;;;5030354;28;20057;-30
2022/10/18 12:49:34;;;;;;;5.60;1.60;;;26.70;61.30;;;;;;5040497;28;20504;-30
2022/10/18 12:52:17;;;;;;;6.10;1.90;;;26.90;55.90;;;;;;5030924;28;20068;-30
2022/10/18 12:54:59;;;;;;;8.80;1.92;;;27.00;54.10;;;;;;5047266;28;20386;-29
2022/10/18 12:57:51;;;;;;;4.30;1.55;;;26.40;51.80;;;;;;5024983;28;20095;-29
2022/10/18 13:00:43;;;;;;;4.60;1.48;;;26.10;55.40;;;;;;5035690;28;20425;-29
2022/10/18 13:03:12;;;;;;;4.75;1.60;;;25.70;53.20;;;;;;5045062;28;20128;-29
2022/10/18 13:05:48;;;;;;;7.85;1.73;;;25.10;57.10;;;;;;5051742;28;20401;-29
2022/10/18 13:08:40;;;;;;;6.05;1.45;;;24.00;56.90;;;;;;5037219;28;20032;-28
2022/10/18 13:11:09;;;;;;;5.20;1.58;;;23.00;63.20;;;;;;5035132;28;20060;-28
2022/10/18 13:13:44;;;;;;;7.22;1.85;;;23.10;78.80;;;;;;5025429;28;20037;-29
2022/10/18 13:16:22;;;;;;;5.72;1.50;;;23.70;77.10;;;;;;5032907;28;20421;-30
2022/10/18 13:18:57;;;;;;;6.05;1.42;;;24.20;66.50;;;;;;5033337;28;20417;-31
2022/10/18 13:21:51;;;;;;;4.80;1.80;;;24.80;66.10;;;;;;5023334;28;20037;-29
2022/10/18 13:24:44;;;;;;;7.50;1.92;;;24.60;60.50;;;;;;5007549;28;20549;-28
2022/10/18 13:27:39;;;;;;;5.25;1.45;;;24.40;62.70;;;;;;5051848;28;20045;-30
2022/10/18 13:30:16;;;;;;;6.05;1.55;;;24.70;65.50;;;;;;5035316;22;20056;-88
2022/10/18 13:33:03;;;;;;;4.45;1.30;;;25.30;62.30;;;;;;5034418;28;20049;-87
2022/10/18 13:35:55;;;;;;;5.32;1.75;;;26.00;59.50;;;;;;5032320;28;20471;-87
2022/10/18 13:38:41;;;;;;;5.90;2.15;;;26.10;54.40;;;;;;4993162;28;20045;-87
2022/10/18 13:41:10;;;;;;;7.43;1.77;;;25.10;54.70;;;;;;4998821;28;20076;-87
2022/10/18 13:43:58;;;;;;;4.93;1.70;;;24.20;59.60;;;;;;5013207;28;20120;-87
2022/10/18 13:46:33;;;;;;;3.92;1.65;;;23.50;68.10;;;;;;5038924;28;20033;-87
2022/10/18 13:49:04;;;;;;;7.00;1.60;;;24.00;74.30;;;;;;4994337;28;20049;-87
2022/10/18 13:51:42;;;;;;;5.30;1.42;;;24.70;68.60;;;;;;5007217;28;20045;-88
2022/10/18 13:54:35;;;;;;;6.43;1.70;;;25.40;62.60;;;;;;4990418;28;20034;-87
2022/10/18 13:57:13;;;;;;;;;;;25.80;57.20;;;;;;5026718;28;20489;-87
2022/10/18 14:00:10;;;;;;;4.25;1.40;;;25.90;54.70;;;;;;5011139;28;20367;-87
2022/10/18 14:03:15;;;;;;;5.22;1.50;;;26.50;55.90;;;;;;5014116;28;20273;-88
2022/10/18 14:05:59;;;;;;;4.95;1.63;;;27.00;49.60;;;;;;5012232;28;20037;-88
2022/10/18 14:08:36;;;;;;;4.82;1.45;;;27.50;51.70;;;;;;4998986;28;20038;-88